sensor_id;sensor_type;location;lat;lon;timestamp;pressure;altitude;pressure_sealevel;temperature;humidity
68628;BME280;55611;48.602;9.490;2024-03-23T00:54:06;96190;;;16.2;56.5
68628;BME280;55611;48.602;9.490;2024-03-23T00:56:37;96180;;;16.3;56.5
68628;BME280;55611;48.602;9.490;2024-03-23T00:59:07;96180;;;16.3;56.5
68628;BME280;55611;48.602;9.490;2024-03-23T01:01:38;96170;;;16.3;56.5
68628;BME280;55611;48.602;9.490;2024-03-23T01:04:09;96170;;;16.3;56.5
68628;BME280;55611;48.602;9.490;2024-03-23T01:06:40;96170;;;16.4;56.5
68628;BME280;55611;48.602;9.490;2024-03-23T01:09:10;96160;;;16.4;56.5
68628;BME280;55611;48.602;9.490;2024-03-23T01:11:41;96170;;;16.3;56.5
68628;BME280;55611;48.602;9.490;2024-03-23T01:14:12;96160;;;16.3;56.5
68628;BME280;55611;48.602;9.490;2024-03-23T01:16:43;96170;;;16.4;56.5
68628;BME280;55611;48.602;9.490;2024-03-23T01:19:13;96170;;;16.3;56.5
68628;BME280;55611;48.602;9.490;2024-03-23T01:21:44;96160;;;16.3;56.5
68628;BME280;55611;48.602;9.490;2024-03-23T01:24:15;96160;;;16.3;56.5
68628;BME280;55611;48.602;9.490;2024-03-23T01:26:46;96160;;;16.3;56.5
68628;BME280;55611;48.602;9.490;2024-03-23T01:29:16;96160;;;16.4;56.5
68628;BME280;55611;48.602;9.490;2024-03-23T01:31:47;96150;;;16.4;56.5
68628;BME280;55611;48.602;9.490;2024-03-23T01:34:18;96140;;;16.4;56.5
68628;BME280;55611;48.602;9.490;2024-03-23T01:36:49;96140;;;16.4;56.5
68628;BME280;55611;48.602;9.490;2024-03-23T01:39:20;96130;;;16.4;56.5
68628;BME280;55611;48.602;9.490;2024-03-23T01:41:50;96130;;;16.4;56.5
68628;BME280;55611;48.602;9.490;2024-03-23T01:44:21;96130;;;16.5;56.5
68628;BME280;55611;48.602;9.490;2024-03-23T01:46:52;96130;;;16.5;56.5
68628;BME280;55611;48.602;9.490;2024-03-23T01:49:23;96130;;;16.6;56.5
68628;BME280;55611;48.602;9.490;2024-03-23T01:51:54;96120;;;16.6;56.5
68628;BME280;55611;48.602;9.490;2024-03-23T01:54:24;96120;;;16.6;56.5
68628;BME280;55611;48.602;9.490;2024-03-23T01:56:55;96110;;;16.5;56.5
68628;BME280;55611;48.602;9.490;2024-03-23T01:59:26;96100;;;16.5;56.5
68628;BME280;55611;48.602;9.490;2024-03-23T02:01:57;96110;;;16.6;56.5
68628;BME280;55611;48.602;9.490;2024-03-23T02:04:27;96100;;;16.7;56.5
68628;BME280;55611;48.602;9.490;2024-03-23T02:06:58;96090;;;16.7;56.5
68628;BME280;55611;48.602;9.490;2024-03-23T02:09:29;96090;;;16.7;56.5
68628;BME280;55611;48.602;9.490;2024-03-23T02:12:01;96090;;;16.6;56.5
68628;BME280;55611;48.602;9.490;2024-03-23T02:14:30;96090;;;16.6;56.5
68628;BME280;55611;48.602;9.490;2024-03-23T02:17:01;96090;;;16.7;56.5
68628;BME280;55611;48.602;9.490;2024-03-23T02:19:32;96090;;;16.7;56
68628;BME280;55611;48.602;9.490;2024-03-23T02:22:03;96080;;;16.6;56
68628;BME280;55611;48.602;9.490;2024-03-23T02:24:34;96070;;;16.6;56
68628;BME280;55611;48.602;9.490;2024-03-23T02:27:04;96060;;;16.6;56
68628;BME280;55611;48.602;9.490;2024-03-23T02:29:35;96060;;;16.7;56
68628;BME280;55611;48.602;9.490;2024-03-23T02:32:06;96060;;;16.7;56
68628;BME280;55611;48.602;9.490;2024-03-23T02:34:37;96060;;;16.7;56
68628;BME280;55611;48.602;9.490;2024-03-23T02:37:11;96050;;;16.7;56
68628;BME280;55611;48.602;9.490;2024-03-23T02:39:38;96040;;;16.7;56
68628;BME280;55611;48.602;9.490;2024-03-23T02:42:09;96040;;;16.6;56
68628;BME280;55611;48.602;9.490;2024-03-23T02:44:40;96050;;;16.6;56
68628;BME280;55611;48.602;9.490;2024-03-23T02:47:10;96040;;;16.7;56
68628;BME280;55611;48.602;9.490;2024-03-23T02:49:41;96050;;;16.6;56
68628;BME280;55611;48.602;9.490;2024-03-23T02:52:12;96040;;;16.5;56
68628;BME280;55611;48.602;9.490;2024-03-23T02:57:14;96050;;;16.5;56
68628;BME280;55611;48.602;9.490;2024-03-23T02:59:45;96040;;;16.5;56
68628;BME280;55611;48.602;9.490;2024-03-23T03:02:15;96040;;;16.5;56
68628;BME280;55611;48.602;9.490;2024-03-23T03:04:46;96040;;;16.5;56
68628;BME280;55611;48.602;9.490;2024-03-23T03:07:17;96040;;;16.5;56
68628;BME280;55611;48.602;9.490;2024-03-23T03:09:47;96040;;;16.5;56
68628;BME280;55611;48.602;9.490;2024-03-23T03:12:18;96040;;;16.6;56
68628;BME280;55611;48.602;9.490;2024-03-23T03:14:49;96030;;;16.5;56
68628;BME280;55611;48.602;9.490;2024-03-23T03:17:20;96020;;;16.6;56
68628;BME280;55611;48.602;9.490;2024-03-23T03:19:51;96030;;;16.7;56
68628;BME280;55611;48.602;9.490;2024-03-23T03:22:22;96020;;;16.7;56
68628;BME280;55611;48.602;9.490;2024-03-23T03:24:52;96020;;;16.7;56
68628;BME280;55611;48.602;9.490;2024-03-23T03:27:23;96020;;;16.7;56
68628;BME280;55611;48.602;9.490;2024-03-23T03:29:54;96010;;;16.8;56
68628;BME280;55611;48.602;9.490;2024-03-23T03:32:24;96020;;;16.6;56
68628;BME280;55611;48.602;9.490;2024-03-23T03:34:55;96020;;;16.7;56
68628;BME280;55611;48.602;9.490;2024-03-23T03:37:26;96010;;;16.7;56
68628;BME280;55611;48.602;9.490;2024-03-23T03:39:57;96010;;;16.8;56
68628;BME280;55611;48.602;9.490;2024-03-23T03:42:28;96020;;;16.9;56
68628;BME280;55611;48.602;9.490;2024-03-23T03:44:58;96010;;;16.9;56
68628;BME280;55611;48.602;9.490;2024-03-23T03:47:29;96010;;;16.8;56
68628;BME280;55611;48.602;9.490;2024-03-23T03:50:00;96010;;;16.8;56
68628;BME280;55611;48.602;9.490;2024-03-23T03:52:31;96010;;;16.9;56
68628;BME280;55611;48.602;9.490;2024-03-23T03:55:02;96020;;;16.8;55.5
68628;BME280;55611;48.602;9.490;2024-03-23T03:57:32;96020;;;16.8;55.5
68628;BME280;55611;48.602;9.490;2024-03-23T04:00:03;96010;;;16.7;55.5
68628;BME280;55611;48.602;9.490;2024-03-23T04:02:34;95990;;;16.7;55.5
68628;BME280;55611;48.602;9.490;2024-03-23T04:05:05;95990;;;16.9;55.5
68628;BME280;55611;48.602;9.490;2024-03-23T04:07:35;95980;;;16.7;55.5
68628;BME280;55611;48.602;9.490;2024-03-23T04:10:06;95960;;;16.6;55.5
68628;BME280;55611;48.602;9.490;2024-03-23T04:12:37;95960;;;16.6;55.5
68628;BME280;55611;48.602;9.490;2024-03-23T04:15:08;95960;;;16.5;55.5
68628;BME280;55611;48.602;9.490;2024-03-23T04:17:39;95950;;;16.7;55.5
68628;BME280;55611;48.602;9.490;2024-03-23T04:20:09;95940;;;16.7;55.5
68628;BME280;55611;48.602;9.490;2024-03-23T04:22:40;95940;;;16.6;55.5
68628;BME280;55611;48.602;9.490;2024-03-23T04:25:11;95920;;;16.5;55.5
68628;BME280;55611;48.602;9.490;2024-03-23T04:27:41;95930;;;16.4;55.5
68628;BME280;55611;48.602;9.490;2024-03-23T04:30:12;95910;;;16.5;55.5
68628;BME280;55611;48.602;9.490;2024-03-23T04:32:43;95910;;;16.5;55.5
68628;BME280;55611;48.602;9.490;2024-03-23T04:35:14;95900;;;16.4;55.5
68628;BME280;55611;48.602;9.490;2024-03-23T04:37:45;95890;;;16.4;56
68628;BME280;55611;48.602;9.490;2024-03-23T04:40:15;95890;;;16.5;56
68628;BME280;55611;48.602;9.490;2024-03-23T04:42:46;95860;;;16.4;56
68628;BME280;55611;48.602;9.490;2024-03-23T04:45:17;95880;;;16.4;56
68628;BME280;55611;48.602;9.490;2024-03-23T04:47:48;95860;;;16.4;56
68628;BME280;55611;48.602;9.490;2024-03-23T04:50:18;95870;;;16.4;56
68628;BME280;55611;48.602;9.490;2024-03-23T04:52:49;95860;;;16.5;56
68628;BME280;55611;48.602;9.490;2024-03-23T04:55:20;95860;;;16.6;55.5
68628;BME280;55611;48.602;9.490;2024-03-23T04:57:51;95870;;;16.6;55.5
68628;BME280;55611;48.602;9.490;2024-03-23T05:00:22;95870;;;16.7;55.5
68628;BME280;55611;48.602;9.490;2024-03-23T05:02:52;95860;;;16.9;56
68628;BME280;55611;48.602;9.490;2024-03-23T05:05:23;95860;;;17.2;56
68628;BME280;55611;48.602;9.490;2024-03-23T05:07:54;95840;;;17.2;56
68628;BME280;55611;48.602;9.490;2024-03-23T05:10:25;95840;;;17.2;56
68628;BME280;55611;48.602;9.490;2024-03-23T05:12:55;95850;;;17.2;55.5
68628;BME280;55611;48.602;9.490;2024-03-23T05:15:26;95850;;;17.1;55.5
68628;BME280;55611;48.602;9.490;2024-03-23T05:17:57;95850;;;17;55.5
68628;BME280;55611;48.602;9.490;2024-03-23T05:20:28;95850;;;17.1;55.5
68628;BME280;55611;48.602;9.490;2024-03-23T05:22:59;95860;;;17;55.5
68628;BME280;55611;48.602;9.490;2024-03-23T05:25:29;95870;;;17;55.5
68628;BME280;55611;48.602;9.490;2024-03-23T05:28:00;95890;;;16.9;56
68628;BME280;55611;48.602;9.490;2024-03-23T05:30:31;95910;;;15.4;56.5
68628;BME280;55611;48.602;9.490;2024-03-23T05:33:02;95930;;;14.4;56.5
68628;BME280;55611;48.602;9.490;2024-03-23T05:35:32;95930;;;13.7;56.5
68628;BME280;55611;48.602;9.490;2024-03-23T05:38:03;95960;;;13.4;56.5
68628;BME280;55611;48.602;9.490;2024-03-23T05:40:34;95960;;;13;56.5
68628;BME280;55611;48.602;9.490;2024-03-23T05:43:05;95960;;;12.7;56
68628;BME280;55611;48.602;9.490;2024-03-23T05:45:36;95970;;;12.6;56
68628;BME280;55611;48.602;9.490;2024-03-23T05:48:06;95970;;;12.7;56
68628;BME280;55611;48.602;9.490;2024-03-23T05:50:37;95980;;;12.7;56
68628;BME280;55611;48.602;9.490;2024-03-23T05:53:08;96000;;;12.7;56
68628;BME280;55611;48.602;9.490;2024-03-23T05:55:39;96020;;;12.7;56
68628;BME280;55611;48.602;9.490;2024-03-23T05:58:10;96050;;;12.5;56.5
68628;BME280;55611;48.602;9.490;2024-03-23T06:00:40;96050;;;12.3;56.5
68628;BME280;55611;48.602;9.490;2024-03-23T06:03:11;96050;;;12.1;57
68628;BME280;55611;48.602;9.490;2024-03-23T06:05:42;96050;;;12.1;57
68628;BME280;55611;48.602;9.490;2024-03-23T06:08:12;96060;;;12.1;57.5
68628;BME280;55611;48.602;9.490;2024-03-23T06:10:43;96060;;;12.1;57.5
68628;BME280;55611;48.602;9.490;2024-03-23T06:13:14;96070;;;12;57.5
68628;BME280;55611;48.602;9.490;2024-03-23T06:15:45;96080;;;12;57.5
68628;BME280;55611;48.602;9.490;2024-03-23T06:18:16;96080;;;12;57.5
68628;BME280;55611;48.602;9.490;2024-03-23T06:20:46;96080;;;12.1;57.5
68628;BME280;55611;48.602;9.490;2024-03-23T06:23:17;96090;;;12.1;57.5
68628;BME280;55611;48.602;9.490;2024-03-23T06:25:48;96090;;;12;57.5
68628;BME280;55611;48.602;9.490;2024-03-23T06:28:19;96090;;;12.1;57.5
68628;BME280;55611;48.602;9.490;2024-03-23T06:30:49;96100;;;12.1;57
68628;BME280;55611;48.602;9.490;2024-03-23T06:33:20;96110;;;12.2;57
68628;BME280;55611;48.602;9.490;2024-03-23T06:35:51;96100;;;12.2;57
68628;BME280;55611;48.602;9.490;2024-03-23T06:38:22;96110;;;12.1;57
68628;BME280;55611;48.602;9.490;2024-03-23T06:40:53;96120;;;12.2;56.5
68628;BME280;55611;48.602;9.490;2024-03-23T06:43:23;96110;;;12.2;56.5
68628;BME280;55611;48.602;9.490;2024-03-23T06:45:54;96130;;;12.3;56.5
68628;BME280;55611;48.602;9.490;2024-03-23T06:48:25;96140;;;12.2;56.5
68628;BME280;55611;48.602;9.490;2024-03-23T06:50:56;96130;;;12.2;56.5
68628;BME280;55611;48.602;9.490;2024-03-23T06:53:26;96140;;;12.2;56.5
68628;BME280;55611;48.602;9.490;2024-03-23T06:55:57;96140;;;12.1;56.5
68628;BME280;55611;48.602;9.490;2024-03-23T06:58:28;96150;;;12;56.5
68628;BME280;55611;48.602;9.490;2024-03-23T07:00:59;96170;;;12;56.5
68628;BME280;55611;48.602;9.490;2024-03-23T07:03:30;96160;;;12;56.5
68628;BME280;55611;48.602;9.490;2024-03-23T07:06:00;96150;;;12;56.5
68628;BME280;55611;48.602;9.490;2024-03-23T07:08:31;96170;;;12;56.5
68628;BME280;55611;48.602;9.490;2024-03-23T07:11:02;96160;;;11.9;57
68628;BME280;55611;48.602;9.490;2024-03-23T07:13:33;96160;;;11.9;57
68628;BME280;55611;48.602;9.490;2024-03-23T07:16:03;96150;;;12;57
68628;BME280;55611;48.602;9.490;2024-03-23T07:18:34;96160;;;11.9;57
68628;BME280;55611;48.602;9.490;2024-03-23T07:21:05;96160;;;11.9;57
68628;BME280;55611;48.602;9.490;2024-03-23T07:23:36;96170;;;11.9;57
68628;BME280;55611;48.602;9.490;2024-03-23T07:26:06;96180;;;12;57.5
68628;BME280;55611;48.602;9.490;2024-03-23T07:28:37;96190;;;12;57.5
68628;BME280;55611;48.602;9.490;2024-03-23T07:31:08;96180;;;12;57.5
68628;BME280;55611;48.602;9.490;2024-03-23T07:33:46;96190;;;12.1;57.5
68628;BME280;55611;48.602;9.490;2024-03-23T07:36:10;96200;;;12.1;57.5
68628;BME280;55611;48.602;9.490;2024-03-23T07:38:41;96210;;;12.2;57.5
68628;BME280;55611;48.602;9.490;2024-03-23T07:41:15;96220;;;12.2;57.5
68628;BME280;55611;48.602;9.490;2024-03-23T07:43:42;96230;;;12.3;57.5
68628;BME280;55611;48.602;9.490;2024-03-23T07:46:14;96240;;;12.4;57.5
68628;BME280;55611;48.602;9.490;2024-03-23T07:48:43;96240;;;12.3;57.5
68628;BME280;55611;48.602;9.490;2024-03-23T07:51:16;96240;;;12.2;57.5
68628;BME280;55611;48.602;9.490;2024-03-23T07:53:45;96230;;;12.2;57.5
68628;BME280;55611;48.602;9.490;2024-03-23T07:56:16;96240;;;12.3;57.5
68628;BME280;55611;48.602;9.490;2024-03-23T07:58:47;96240;;;12.3;57.5
68628;BME280;55611;48.602;9.490;2024-03-23T08:01:17;96250;;;12.3;57.5
68628;BME280;55611;48.602;9.490;2024-03-23T08:03:49;96270;;;12.3;57.5
68628;BME280;55611;48.602;9.490;2024-03-23T08:06:19;96260;;;12.3;58
68628;BME280;55611;48.602;9.490;2024-03-23T08:08:51;96270;;;12.3;58
68628;BME280;55611;48.602;9.490;2024-03-23T08:11:20;96280;;;12.5;58
68628;BME280;55611;48.602;9.490;2024-03-23T08:13:51;96280;;;12.8;58
68628;BME280;55611;48.602;9.490;2024-03-23T08:16:22;96270;;;12.8;58
68628;BME280;55611;48.602;9.490;2024-03-23T08:18:53;96270;;;12.6;58
68628;BME280;55611;48.602;9.490;2024-03-23T08:21:24;96280;;;12.5;58
68628;BME280;55611;48.602;9.490;2024-03-23T08:23:54;96310;;;12.5;58
68628;BME280;55611;48.602;9.490;2024-03-23T08:26:25;96290;;;12.6;58
68628;BME280;55611;48.602;9.490;2024-03-23T08:28:56;96310;;;12.6;58
68628;BME280;55611;48.602;9.490;2024-03-23T08:31:27;96320;;;12.5;58
68628;BME280;55611;48.602;9.490;2024-03-23T08:33:57;96330;;;12.5;58.5
68628;BME280;55611;48.602;9.490;2024-03-23T08:36:28;96350;;;12.4;58.5
68628;BME280;55611;48.602;9.490;2024-03-23T08:38:59;96330;;;12.6;58.5
68628;BME280;55611;48.602;9.490;2024-03-23T08:41:30;96350;;;12.5;58.5
68628;BME280;55611;48.602;9.490;2024-03-23T08:44:03;96340;;;12.7;58.5
68628;BME280;55611;48.602;9.490;2024-03-23T08:46:31;96360;;;13;58.5
68628;BME280;55611;48.602;9.490;2024-03-23T08:49:02;96370;;;12.8;58.5
68628;BME280;55611;48.602;9.490;2024-03-23T08:51:33;96390;;;12.6;58.5
68628;BME280;55611;48.602;9.490;2024-03-23T08:54:04;96400;;;12.6;58.5
68628;BME280;55611;48.602;9.490;2024-03-23T08:56:34;96420;;;12.5;58.5
68628;BME280;55611;48.602;9.490;2024-03-23T08:59:05;96420;;;12.4;58.5
68628;BME280;55611;48.602;9.490;2024-03-23T09:01:36;96410;;;12.3;58.5
68628;BME280;55611;48.602;9.490;2024-03-23T09:04:07;96410;;;12.2;58.5
68628;BME280;55611;48.602;9.490;2024-03-23T09:06:37;96420;;;12.2;58.5
68628;BME280;55611;48.602;9.490;2024-03-23T09:09:09;96420;;;12.4;58.5
68628;BME280;55611;48.602;9.490;2024-03-23T09:11:39;96420;;;12.3;58.5
68628;BME280;55611;48.602;9.490;2024-03-23T09:14:10;96440;;;12.1;58.5
68628;BME280;55611;48.602;9.490;2024-03-23T09:16:41;96430;;;11.8;58.5
68628;BME280;55611;48.602;9.490;2024-03-23T09:19:11;96430;;;11.9;58.5
68628;BME280;55611;48.602;9.490;2024-03-23T09:21:42;96450;;;12;58.5
68628;BME280;55611;48.602;9.490;2024-03-23T09:24:13;96450;;;12.2;58.5
68628;BME280;55611;48.602;9.490;2024-03-23T09:26:44;96450;;;12.2;58.5
68628;BME280;55611;48.602;9.490;2024-03-23T09:29:14;96460;;;12.2;58.5
68628;BME280;55611;48.602;9.490;2024-03-23T09:31:45;96460;;;12.2;58.5
68628;BME280;55611;48.602;9.490;2024-03-23T09:34:16;96450;;;12.2;58.5
68628;BME280;55611;48.602;9.490;2024-03-23T09:36:47;96460;;;12.1;58.5
68628;BME280;55611;48.602;9.490;2024-03-23T09:39:18;96460;;;12.2;58.5
68628;BME280;55611;48.602;9.490;2024-03-23T09:41:48;96460;;;12.2;58.5
68628;BME280;55611;48.602;9.490;2024-03-23T09:44:19;96460;;;11.9;58.5
68628;BME280;55611;48.602;9.490;2024-03-23T09:46:50;96480;;;11.7;58.5
68628;BME280;55611;48.602;9.490;2024-03-23T09:49:21;96470;;;11.8;58.5
68628;BME280;55611;48.602;9.490;2024-03-23T09:51:51;96450;;;12;58.5
68628;BME280;55611;48.602;9.490;2024-03-23T09:54:22;96440;;;12.2;58.5
68628;BME280;55611;48.602;9.490;2024-03-23T09:56:53;96440;;;12.2;58.5
68628;BME280;55611;48.602;9.490;2024-03-23T09:59:24;96450;;;12.1;58.5
68628;BME280;55611;48.602;9.490;2024-03-23T10:01:55;96470;;;11.9;58.5
68628;BME280;55611;48.602;9.490;2024-03-23T10:04:41;96460;;;12.1;58.5
68628;BME280;55611;48.602;9.490;2024-03-23T10:06:56;96470;;;12.3;58.5
68628;BME280;55611;48.602;9.490;2024-03-23T10:09:27;96460;;;12.6;58.5
68628;BME280;55611;48.602;9.490;2024-03-23T10:12:07;96460;;;12.9;58.5
68628;BME280;55611;48.602;9.490;2024-03-23T10:14:29;96450;;;12.9;58.5
68628;BME280;55611;48.602;9.490;2024-03-23T10:17:11;96440;;;12.8;58.5
68628;BME280;55611;48.602;9.490;2024-03-23T10:19:31;96440;;;12.8;58.5
68628;BME280;55611;48.602;9.490;2024-03-23T10:22:01;96440;;;12.6;58.5
68628;BME280;55611;48.602;9.490;2024-03-23T10:24:32;96450;;;12.5;58.5
68628;BME280;55611;48.602;9.490;2024-03-23T10:27:02;96450;;;12.4;58.5
68628;BME280;55611;48.602;9.490;2024-03-23T10:29:33;96440;;;12.5;58.5
68628;BME280;55611;48.602;9.490;2024-03-23T10:32:11;96440;;;12.8;58.5
68628;BME280;55611;48.602;9.490;2024-03-23T10:34:35;96450;;;13.1;58.5
68628;BME280;55611;48.602;9.490;2024-03-23T10:37:06;96450;;;13.2;58.5
68628;BME280;55611;48.602;9.490;2024-03-23T10:39:37;96450;;;13.4;58.5
68628;BME280;55611;48.602;9.490;2024-03-23T10:42:08;96450;;;13.3;58.5
68628;BME280;55611;48.602;9.490;2024-03-23T10:44:38;96440;;;13.2;58
68628;BME280;55611;48.602;9.490;2024-03-23T10:47:09;96450;;;13.4;58.5
68628;BME280;55611;48.602;9.490;2024-03-23T10:49:39;96440;;;13.7;58.5
68628;BME280;55611;48.602;9.490;2024-03-23T10:52:10;96430;;;13.7;58.5
68628;BME280;55611;48.602;9.490;2024-03-23T10:54:41;96430;;;13.5;58.5
68628;BME280;55611;48.602;9.490;2024-03-23T10:57:14;96430;;;13.7;58.5
68628;BME280;55611;48.602;9.490;2024-03-23T10:59:42;96430;;;13.8;58.5
68628;BME280;55611;48.602;9.490;2024-03-23T11:02:21;96430;;;13.5;58.5
68628;BME280;55611;48.602;9.490;2024-03-23T11:04:44;96430;;;13.2;58.5
68628;BME280;55611;48.602;9.490;2024-03-23T11:07:30;96440;;;13.1;58.5
68628;BME280;55611;48.602;9.490;2024-03-23T11:09:45;96430;;;13;58.5
68628;BME280;55611;48.602;9.490;2024-03-23T11:12:29;96440;;;12.9;58.5
68628;BME280;55611;48.602;9.490;2024-03-23T11:14:47;96440;;;12.7;58
68628;BME280;55611;48.602;9.490;2024-03-23T11:17:18;96460;;;12.5;58
68628;BME280;55611;48.602;9.490;2024-03-23T11:19:56;96460;;;12;58
68628;BME280;55611;48.602;9.490;2024-03-23T11:22:37;96520;;;10.7;58
68628;BME280;55611;48.602;9.490;2024-03-23T11:24:50;96550;;;8.8;58
68628;BME280;55611;48.602;9.490;2024-03-23T11:27:21;96560;;;8.6;58
68628;BME280;55611;48.602;9.490;2024-03-23T11:29:52;96570;;;8.4;58
68628;BME280;55611;48.602;9.490;2024-03-23T11:32:22;96570;;;8.2;58
68628;BME280;55611;48.602;9.490;2024-03-23T11:34:53;96560;;;8.1;58
68628;BME280;55611;48.602;9.490;2024-03-23T11:37:24;96540;;;8.2;58.5
68628;BME280;55611;48.602;9.490;2024-03-23T11:39:55;96550;;;8.5;58.5
68628;BME280;55611;48.602;9.490;2024-03-23T11:42:26;96570;;;8.6;58.5
68628;BME280;55611;48.602;9.490;2024-03-23T11:44:56;96570;;;8.7;58.5
68628;BME280;55611;48.602;9.490;2024-03-23T11:47:27;96570;;;9;58.5
68628;BME280;55611;48.602;9.490;2024-03-23T11:49:58;96570;;;9.3;58
68628;BME280;55611;48.602;9.490;2024-03-23T11:52:29;96560;;;9.4;58
68628;BME280;55611;48.602;9.490;2024-03-23T11:55:03;96570;;;9.5;58
68628;BME280;55611;48.602;9.490;2024-03-23T11:57:30;96570;;;9.6;58
68628;BME280;55611;48.602;9.490;2024-03-23T12:02:32;96560;;;10.2;58
68628;BME280;55611;48.602;9.490;2024-03-23T12:05:13;96560;;;10.3;58
68628;BME280;55611;48.602;9.490;2024-03-23T12:07:33;96560;;;10.4;58
68628;BME280;55611;48.602;9.490;2024-03-23T12:10:05;96560;;;10.6;58
68628;BME280;55611;48.602;9.490;2024-03-23T12:12:35;96550;;;10.8;58
68628;BME280;55611;48.602;9.490;2024-03-23T12:15:06;96560;;;11;58
68628;BME280;55611;48.602;9.490;2024-03-23T12:17:36;96550;;;11.1;58
68628;BME280;55611;48.602;9.490;2024-03-23T12:20:07;96550;;;11.1;58
68628;BME280;55611;48.602;9.490;2024-03-23T12:22:38;96550;;;11;58
68628;BME280;55611;48.602;9.490;2024-03-23T12:25:09;96540;;;10.9;58
68628;BME280;55611;48.602;9.490;2024-03-23T12:27:39;96540;;;10.9;58
68628;BME280;55611;48.602;9.490;2024-03-23T12:30:10;96530;;;10.8;58
68628;BME280;55611;48.602;9.490;2024-03-23T12:32:41;96530;;;10.7;58
68628;BME280;55611;48.602;9.490;2024-03-23T12:35:12;96520;;;10.7;58
68628;BME280;55611;48.602;9.490;2024-03-23T12:37:43;96520;;;10.8;58
68628;BME280;55611;48.602;9.490;2024-03-23T12:40:13;96520;;;10.8;58
68628;BME280;55611;48.602;9.490;2024-03-23T12:42:44;96520;;;10.8;58.5
68628;BME280;55611;48.602;9.490;2024-03-23T12:45:15;96530;;;10.9;58.5
68628;BME280;55611;48.602;9.490;2024-03-23T12:47:46;96530;;;10.9;58.5
68628;BME280;55611;48.602;9.490;2024-03-23T12:50:16;96520;;;10.8;58.5
68628;BME280;55611;48.602;9.490;2024-03-23T12:52:47;96530;;;10.7;58.5
68628;BME280;55611;48.602;9.490;2024-03-23T12:55:18;96520;;;10.7;58.5
68628;BME280;55611;48.602;9.490;2024-03-23T12:57:49;96530;;;10.6;58.5
68628;BME280;55611;48.602;9.490;2024-03-23T13:00:20;96520;;;10.8;58.5
68628;BME280;55611;48.602;9.490;2024-03-23T13:02:50;96530;;;11;58.5
68628;BME280;55611;48.602;9.490;2024-03-23T13:05:21;96520;;;11;58.5
68628;BME280;55611;48.602;9.490;2024-03-23T13:07:52;96520;;;11.1;58.5
68628;BME280;55611;48.602;9.490;2024-03-23T13:10:23;96510;;;11.4;58.5
68628;BME280;55611;48.602;9.490;2024-03-23T13:12:53;96490;;;11.4;58.5
68628;BME280;55611;48.602;9.490;2024-03-23T13:15:24;96500;;;11.5;59
68628;BME280;55611;48.602;9.490;2024-03-23T13:17:55;96490;;;11.6;59
68628;BME280;55611;48.602;9.490;2024-03-23T13:20:26;96500;;;11.6;59
68628;BME280;55611;48.602;9.490;2024-03-23T13:22:56;96490;;;11.7;59
68628;BME280;55611;48.602;9.490;2024-03-23T13:25:27;96490;;;11.9;59
68628;BME280;55611;48.602;9.490;2024-03-23T13:27:58;96480;;;12.2;58.5
68628;BME280;55611;48.602;9.490;2024-03-23T13:30:29;96480;;;12.1;58.5
68628;BME280;55611;48.602;9.490;2024-03-23T13:33:00;96470;;;11.8;58.5
68628;BME280;55611;48.602;9.490;2024-03-23T13:35:30;96480;;;11.5;58.5
68628;BME280;55611;48.602;9.490;2024-03-23T13:38:01;96470;;;11.3;58.5
68628;BME280;55611;48.602;9.490;2024-03-23T13:40:32;96460;;;11.3;58.5
68628;BME280;55611;48.602;9.490;2024-03-23T13:43:03;96490;;;11.1;58.5
68628;BME280;55611;48.602;9.490;2024-03-23T13:45:33;96480;;;11.1;58.5
68628;BME280;55611;48.602;9.490;2024-03-23T13:48:04;96470;;;11.1;58.5
68628;BME280;55611;48.602;9.490;2024-03-23T13:50:35;96460;;;10.9;58.5
68628;BME280;55611;48.602;9.490;2024-03-23T13:53:06;96460;;;10.8;58.5
68628;BME280;55611;48.602;9.490;2024-03-23T13:55:37;96450;;;10.7;58.5
68628;BME280;55611;48.602;9.490;2024-03-23T13:58:07;96450;;;10.8;58.5
68628;BME280;55611;48.602;9.490;2024-03-23T14:00:38;96430;;;10.7;58.5
68628;BME280;55611;48.602;9.490;2024-03-23T14:03:09;96420;;;10.7;58.5
68628;BME280;55611;48.602;9.490;2024-03-23T14:05:40;96420;;;10.8;58.5
68628;BME280;55611;48.602;9.490;2024-03-23T14:08:10;96420;;;10.9;58.5
68628;BME280;55611;48.602;9.490;2024-03-23T14:10:41;96410;;;11;58.5
68628;BME280;55611;48.602;9.490;2024-03-23T14:13:12;96420;;;11.2;58.5
68628;BME280;55611;48.602;9.490;2024-03-23T14:15:43;96420;;;11.4;58.5
68628;BME280;55611;48.602;9.490;2024-03-23T14:18:14;96410;;;11.4;58.5
68628;BME280;55611;48.602;9.490;2024-03-23T14:20:44;96410;;;11.3;59
68628;BME280;55611;48.602;9.490;2024-03-23T14:23:15;96410;;;11.5;58.5
68628;BME280;55611;48.602;9.490;2024-03-23T14:25:46;96400;;;11.5;58.5
68628;BME280;55611;48.602;9.490;2024-03-23T14:28:17;96410;;;11.3;59
68628;BME280;55611;48.602;9.490;2024-03-23T14:30:48;96410;;;11.2;59
68628;BME280;55611;48.602;9.490;2024-03-23T14:33:18;96410;;;11.2;59
68628;BME280;55611;48.602;9.490;2024-03-23T14:35:56;96410;;;11.1;59
68628;BME280;55611;48.602;9.490;2024-03-23T14:38:20;96400;;;10.9;59
68628;BME280;55611;48.602;9.490;2024-03-23T14:40:50;96400;;;11;59
68628;BME280;55611;48.602;9.490;2024-03-23T14:43:21;96400;;;11;59
68628;BME280;55611;48.602;9.490;2024-03-23T14:46:23;96400;;;11.3;59
68628;BME280;55611;48.602;9.490;2024-03-23T14:48:24;96400;;;11.7;59
68628;BME280;55611;48.602;9.490;2024-03-23T14:50:56;96410;;;11.7;59
68628;BME280;55611;48.602;9.490;2024-03-23T14:53:25;96420;;;11.4;59
68628;BME280;55611;48.602;9.490;2024-03-23T14:55:55;96430;;;11.2;59
68628;BME280;55611;48.602;9.490;2024-03-23T14:58:26;96430;;;11.3;59
68628;BME280;55611;48.602;9.490;2024-03-23T15:01:00;96420;;;11.4;59
68628;BME280;55611;48.602;9.490;2024-03-23T15:03:27;96430;;;11.5;59
68628;BME280;55611;48.602;9.490;2024-03-23T15:05:58;96440;;;11.5;59
68628;BME280;55611;48.602;9.490;2024-03-23T15:08:29;96430;;;11.4;59
68628;BME280;55611;48.602;9.490;2024-03-23T15:11:00;96440;;;11.4;59
68628;BME280;55611;48.602;9.490;2024-03-23T15:13:34;96430;;;11.3;59
68628;BME280;55611;48.602;9.490;2024-03-23T15:16:02;96420;;;11.2;59
68628;BME280;55611;48.602;9.490;2024-03-23T15:18:32;96420;;;11.2;58.5
68628;BME280;55611;48.602;9.490;2024-03-23T15:21:03;96420;;;10.9;58.5
68628;BME280;55611;48.602;9.490;2024-03-23T15:23:34;96450;;;10.6;58.5
68628;BME280;55611;48.602;9.490;2024-03-23T15:26:05;96470;;;10.5;58.5